createdAt,value
2023-05-11T00:00:44.813Z,99.90
2023-05-11T00:03:14.482Z,99.90
2023-05-11T00:05:42.528Z,99.90
2023-05-11T00:08:10.416Z,99.90
2023-05-11T00:10:38.275Z,99.90
2023-05-11T00:13:06.113Z,99.90
2023-05-11T00:15:33.995Z,99.90
2023-05-11T00:18:01.922Z,99.90
2023-05-11T00:20:31.138Z,99.90
2023-05-11T00:22:58.981Z,99.90
2023-05-11T00:25:26.888Z,99.90
2023-05-11T00:27:54.793Z,99.90
2023-05-11T00:30:22.873Z,99.90
2023-05-11T00:32:52.181Z,99.90
2023-05-11T00:35:20.412Z,99.90
2023-05-11T00:37:49.620Z,99.90
2023-05-11T00:40:17.717Z,99.90
2023-05-11T00:42:45.781Z,99.90
2023-05-11T00:45:13.675Z,99.90
2023-05-11T00:47:42.119Z,99.90
2023-05-11T00:50:10.578Z,99.90
2023-05-11T00:52:38.520Z,99.90
2023-05-11T00:55:08.718Z,99.90
2023-05-11T00:57:36.814Z,99.90
2023-05-11T01:00:06.993Z,99.90
2023-05-11T01:02:35.335Z,99.90
2023-05-11T01:05:03.472Z,99.90
2023-05-11T01:07:37.923Z,99.90
2023-05-11T01:10:15.150Z,99.90
2023-05-11T01:12:49.321Z,99.90
2023-05-11T01:15:25.363Z,99.90
2023-05-11T01:18:02.369Z,99.90
2023-05-11T01:20:31.669Z,99.90
2023-05-11T01:23:49.100Z,99.90
2023-05-11T01:26:39.924Z,99.90
2023-05-11T01:29:18.515Z,99.90
2023-05-11T01:31:49.015Z,99.90
2023-05-11T01:34:22.449Z,99.90
2023-05-11T01:36:54.682Z,99.90
2023-05-11T01:39:27.751Z,99.90
2023-05-11T01:41:56.655Z,99.90
2023-05-11T01:44:26.750Z,99.90
2023-05-11T01:46:57.265Z,99.90
2023-05-11T01:49:25.504Z,99.90
2023-05-11T01:51:56.032Z,99.90
2023-05-11T01:54:26.055Z,99.90
2023-05-11T01:56:55.045Z,99.90
2023-05-11T01:59:23.381Z,99.90
2023-05-11T02:01:51.639Z,99.90
2023-05-11T02:04:22.248Z,99.90
2023-05-11T02:06:51.234Z,99.90
2023-05-11T02:09:20.153Z,99.90
2023-05-11T02:11:48.389Z,99.90
2023-05-11T02:14:18.458Z,99.90
2023-05-11T02:16:48.867Z,99.90
2023-05-11T02:19:17.618Z,99.90
2023-05-11T02:21:48.517Z,99.90
2023-05-11T02:24:17.806Z,99.90
2023-05-11T02:26:46.178Z,99.90
2023-05-11T02:29:14.285Z,99.90
2023-05-11T02:31:47.074Z,99.90
2023-05-11T02:34:21.260Z,99.90
2023-05-11T02:36:52.226Z,99.90
2023-05-11T02:39:22.750Z,99.90
2023-05-11T02:41:57.324Z,99.90
2023-05-11T02:44:29.561Z,99.90
2023-05-11T02:47:01.730Z,99.90
2023-05-11T02:49:32.078Z,99.90
2023-05-11T02:52:02.978Z,99.90
2023-05-11T02:54:32.779Z,99.90
2023-05-11T02:57:01.122Z,99.90
2023-05-11T02:59:29.486Z,99.90
2023-05-11T03:01:57.935Z,99.90
2023-05-11T03:04:26.127Z,99.90
2023-05-11T03:06:54.202Z,99.90
2023-05-11T03:09:23.787Z,99.90
2023-05-11T03:11:52.463Z,99.90
2023-05-11T03:14:20.739Z,99.90
2023-05-11T03:16:49.747Z,99.90
2023-05-11T03:19:18.294Z,99.90
2023-05-11T03:21:47.648Z,99.90
2023-05-11T03:24:16.052Z,99.80
2023-05-11T03:26:46.152Z,99.30
2023-05-11T03:29:15.759Z,99.10
2023-05-11T03:31:43.694Z,99.00
2023-05-11T03:34:11.657Z,99.20
2023-05-11T03:36:40.444Z,99.70
2023-05-11T03:39:09.903Z,99.80
2023-05-11T03:41:40.921Z,99.80
2023-05-11T03:44:13.036Z,99.90
2023-05-11T03:46:42.921Z,99.60
2023-05-11T03:49:13.390Z,99.20
2023-05-11T03:51:42.049Z,99.40
2023-05-11T03:54:10.378Z,99.60
2023-05-11T03:56:38.576Z,99.60
2023-05-11T03:59:06.963Z,99.00
2023-05-11T04:01:36.482Z,99.90
2023-05-11T04:04:04.560Z,99.80
2023-05-11T04:06:32.551Z,99.60
2023-05-11T04:09:00.468Z,99.90
2023-05-11T04:11:30.318Z,99.00
2023-05-11T04:13:58.176Z,99.80
2023-05-11T04:16:26.119Z,99.30
2023-05-11T04:18:55.368Z,99.50
2023-05-11T04:21:23.368Z,99.00
2023-05-11T04:23:51.246Z,98.90
2023-05-11T04:26:19.119Z,98.90
2023-05-11T04:28:47.034Z,98.90
2023-05-11T04:31:15.002Z,99.00
2023-05-11T04:33:43.017Z,99.10
2023-05-11T04:36:12.373Z,99.60
2023-05-11T04:38:40.365Z,99.70
2023-05-11T04:41:09.278Z,99.40
2023-05-11T04:43:37.194Z,99.20
2023-05-11T04:46:05.084Z,99.30
2023-05-11T04:48:33.030Z,98.60
2023-05-11T04:51:04.644Z,98.40
2023-05-11T04:53:33.987Z,98.20
2023-05-11T04:56:01.889Z,98.20
2023-05-11T04:58:29.734Z,98.80
2023-05-11T05:00:57.647Z,98.60
2023-05-11T05:03:25.559Z,98.70
2023-05-11T05:05:53.612Z,99.10
2023-05-11T05:08:21.644Z,98.70
2023-05-11T05:10:50.837Z,98.70
2023-05-11T05:13:18.937Z,99.00
2023-05-11T05:15:46.782Z,98.00
2023-05-11T05:18:14.810Z,98.10
2023-05-11T05:20:42.729Z,97.50
2023-05-11T05:23:10.580Z,98.40
2023-05-11T05:25:38.403Z,98.20
2023-05-11T05:28:07.591Z,97.80
2023-05-11T05:30:37.081Z,97.80
2023-05-11T05:33:05.171Z,97.50
2023-05-11T05:35:33.070Z,97.30
2023-05-11T05:38:01.144Z,97.30
2023-05-11T05:40:29.203Z,96.50
2023-05-11T05:42:57.118Z,96.60
2023-05-11T05:45:26.383Z,96.50
2023-05-11T05:47:54.422Z,96.80
2023-05-11T05:50:22.379Z,97.30
2023-05-11T05:52:50.230Z,97.00
2023-05-11T05:55:18.286Z,96.60
2023-05-11T05:57:46.113Z,95.90
2023-05-11T06:00:14.983Z,96.00
2023-05-11T06:02:44.400Z,96.30
2023-05-11T06:05:12.387Z,95.50
2023-05-11T06:07:40.450Z,96.00
2023-05-11T06:10:08.493Z,96.20
2023-05-11T06:12:36.403Z,96.00
2023-05-11T06:15:04.700Z,95.30
2023-05-11T06:17:32.630Z,95.50
2023-05-11T06:20:01.867Z,95.30
2023-05-11T06:22:29.762Z,95.30
2023-05-11T06:24:58.018Z,96.10
2023-05-11T06:27:25.917Z,95.40
2023-05-11T06:29:53.983Z,95.20
2023-05-11T06:32:21.912Z,94.40
2023-05-11T06:34:49.788Z,95.30
2023-05-11T06:37:20.697Z,95.80
2023-05-11T06:39:48.726Z,94.60
2023-05-11T06:42:16.782Z,95.30
2023-05-11T06:44:44.675Z,95.20
2023-05-11T06:47:12.624Z,96.70
2023-05-11T06:49:41.132Z,96.20
2023-05-11T06:52:09.264Z,96.30
2023-05-11T06:54:38.511Z,95.40
2023-05-11T06:57:06.388Z,96.80
2023-05-11T06:59:34.272Z,96.40
2023-05-11T07:02:02.108Z,96.70
2023-05-11T07:04:30.226Z,97.80
2023-05-11T07:06:58.184Z,97.20
2023-05-11T07:09:26.454Z,97.50
2023-05-11T07:11:55.830Z,95.80
2023-05-11T07:14:23.778Z,97.70
2023-05-11T07:16:52.770Z,97.30
2023-05-11T07:19:20.856Z,96.30
2023-05-11T07:21:48.869Z,97.20
2023-05-11T07:24:16.797Z,97.80
2023-05-11T07:26:44.671Z,98.10
2023-05-11T07:29:13.854Z,98.00
2023-05-11T07:31:42.856Z,97.30
2023-05-11T07:34:10.770Z,97.40
2023-05-11T07:36:38.664Z,97.90
2023-05-11T07:39:06.582Z,97.90
2023-05-11T07:41:34.454Z,98.40
2023-05-11T07:44:02.739Z,99.30
2023-05-11T07:46:32.053Z,99.90
2023-05-11T07:49:14.365Z,98.80
2023-05-11T07:51:43.495Z,98.40
2023-05-11T07:54:11.446Z,98.30
2023-05-11T07:56:39.283Z,98.50
2023-05-11T07:59:07.153Z,99.20
2023-05-11T08:01:36.715Z,99.80
2023-05-11T08:04:04.713Z,99.00
2023-05-11T08:06:32.919Z,98.50
2023-05-11T08:09:00.951Z,99.50
2023-05-11T08:11:28.819Z,99.90
2023-05-11T08:13:56.689Z,99.70
2023-05-11T08:16:24.640Z,99.00
2023-05-11T08:18:53.957Z,99.90
2023-05-11T08:21:21.940Z,99.90
2023-05-11T08:23:49.883Z,99.90
2023-05-11T08:26:17.759Z,99.80
2023-05-11T08:28:45.683Z,99.90
2023-05-11T08:31:14.394Z,99.90
2023-05-11T08:33:42.354Z,99.40
2023-05-11T08:36:13.210Z,98.50
2023-05-11T08:38:41.089Z,99.90
2023-05-11T08:41:09.111Z,99.90
2023-05-11T08:43:37.208Z,99.90
2023-05-11T08:46:08.289Z,99.90
2023-05-11T08:48:36.784Z,99.90
2023-05-11T08:51:05.536Z,99.70
2023-05-11T08:53:34.791Z,99.90
2023-05-11T08:56:06.764Z,99.80
2023-05-11T08:58:37.359Z,99.90
2023-05-11T09:01:06.580Z,98.70
2023-05-11T09:03:36.894Z,99.90
2023-05-11T09:06:07.294Z,99.90
2023-05-11T09:08:38.420Z,99.20
2023-05-11T09:11:07.139Z,99.90
2023-05-11T09:13:35.387Z,99.90
2023-05-11T09:16:03.390Z,99.90
2023-05-11T09:18:31.403Z,99.90
2023-05-11T09:21:01.259Z,99.90
2023-05-11T09:23:29.307Z,99.90
2023-05-11T09:25:58.612Z,99.90
2023-05-11T09:28:35.362Z,99.90
2023-05-11T09:31:03.729Z,99.90
2023-05-11T09:33:31.889Z,99.90
2023-05-11T09:35:59.799Z,99.90
2023-05-11T09:38:27.861Z,99.90
2023-05-11T09:40:57.857Z,99.90
2023-05-11T09:43:27.153Z,99.90
2023-05-11T09:45:56.557Z,99.90
2023-05-11T09:48:30.089Z,99.90
2023-05-11T09:51:03.390Z,99.90
2023-05-11T09:53:41.063Z,99.90
2023-05-11T09:56:13.087Z,99.50
2023-05-11T09:58:52.267Z,99.90
2023-05-11T10:01:29.264Z,99.90
2023-05-11T10:04:06.074Z,99.90
2023-05-11T10:06:46.520Z,99.50
2023-05-11T10:09:16.304Z,99.90
2023-05-11T10:11:47.602Z,99.90
2023-05-11T10:14:16.163Z,99.90
2023-05-11T10:16:44.994Z,99.90
2023-05-11T10:19:14.504Z,99.90
2023-05-11T10:21:42.687Z,99.80
2023-05-11T10:24:11.846Z,98.60
2023-05-11T10:26:39.941Z,98.60
2023-05-11T10:29:10.511Z,99.20
2023-05-11T10:31:39.289Z,98.80
2023-05-11T10:34:08.398Z,99.20
2023-05-11T10:36:36.557Z,99.90
2023-05-11T10:39:04.773Z,99.90
2023-05-11T10:41:46.210Z,99.90
2023-05-11T10:44:49.681Z,99.90
2023-05-11T10:48:00.384Z,99.90
2023-05-11T10:50:43.347Z,99.90
2023-05-11T10:53:42.153Z,99.30
2023-05-11T10:56:24.755Z,99.90
2023-05-11T10:59:22.657Z,99.90
2023-05-11T11:01:54.726Z,99.80
2023-05-11T11:04:24.852Z,99.30
2023-05-11T11:07:06.516Z,99.20
2023-05-11T11:09:53.256Z,99.90
2023-05-11T11:12:22.571Z,99.90
2023-05-11T11:15:02.386Z,99.20
2023-05-11T11:17:32.707Z,99.90
2023-05-11T11:20:04.584Z,99.00
2023-05-11T11:22:47.222Z,97.60
2023-05-11T11:25:17.133Z,98.90
2023-05-11T11:27:59.346Z,99.50
2023-05-11T11:30:30.379Z,99.20
2023-05-11T11:33:32.476Z,97.80
2023-05-11T11:36:02.603Z,98.30
2023-05-11T11:38:32.446Z,99.50
2023-05-11T11:41:00.555Z,98.20
2023-05-11T11:43:47.044Z,97.60
2023-05-11T11:46:28.817Z,97.70
2023-05-11T11:49:09.224Z,97.70
2023-05-11T11:51:40.844Z,96.30
2023-05-11T11:54:09.512Z,97.50
2023-05-11T11:56:45.600Z,93.80
2023-05-11T11:59:15.434Z,96.20
2023-05-11T12:01:45.194Z,97.80
2023-05-11T12:04:44.266Z,93.30
2023-05-11T12:07:14.803Z,93.00
2023-05-11T12:09:42.801Z,92.50
2023-05-11T12:12:11.908Z,94.00
2023-05-11T12:14:42.093Z,93.20
2023-05-11T12:17:15.242Z,92.00
2023-05-11T12:19:44.771Z,91.40
2023-05-11T12:22:16.334Z,90.90
2023-05-11T12:24:44.530Z,92.20
2023-05-11T12:27:12.659Z,89.60
2023-05-11T12:29:41.361Z,89.40
2023-05-11T12:32:14.011Z,88.80
2023-05-11T12:34:42.126Z,86.50
2023-05-11T12:37:10.241Z,85.60
2023-05-11T12:39:39.773Z,84.60
2023-05-11T12:42:07.834Z,81.30
2023-05-11T12:44:36.305Z,81.50
2023-05-11T12:47:04.799Z,79.50
2023-05-11T12:49:32.759Z,75.70
2023-05-11T12:52:08.169Z,79.30
2023-05-11T12:54:38.077Z,72.00
2023-05-11T12:57:10.290Z,73.80
2023-05-11T12:59:40.016Z,72.80
2023-05-11T13:02:12.773Z,72.30
2023-05-11T13:04:41.934Z,74.60
2023-05-11T13:07:10.187Z,70.40
2023-05-11T13:09:38.930Z,72.50
2023-05-11T13:12:13.981Z,73.50
2023-05-11T13:14:41.814Z,73.10
2023-05-11T13:17:09.852Z,75.10
2023-05-11T13:19:39.372Z,74.50
2023-05-11T13:22:08.339Z,72.40
2023-05-11T13:24:36.328Z,73.20
2023-05-11T13:27:04.301Z,73.40
2023-05-11T13:29:34.264Z,74.10
2023-05-11T13:32:02.206Z,73.40
2023-05-11T13:34:30.184Z,73.60
2023-05-11T13:36:58.134Z,70.90
2023-05-11T13:39:26.018Z,77.50
2023-05-11T13:41:55.848Z,76.50
2023-05-11T13:44:24.063Z,70.50
2023-05-11T13:46:53.386Z,69.30
2023-05-11T13:49:21.687Z,61.80
2023-05-11T13:51:49.614Z,63.30
2023-05-11T13:54:17.483Z,65.70
2023-05-11T13:56:45.552Z,64.10
2023-05-11T13:59:13.485Z,64.30
2023-05-11T14:01:41.952Z,61.00
2023-05-11T14:04:11.454Z,64.90
2023-05-11T14:06:39.410Z,67.40
2023-05-11T14:09:07.369Z,71.30
2023-05-11T14:11:36.872Z,66.70
2023-05-11T14:14:05.975Z,62.90
2023-05-11T14:16:33.950Z,60.70
2023-05-11T14:19:01.850Z,57.80
2023-05-11T14:21:32.383Z,57.70
2023-05-11T14:24:11.378Z,61.30
2023-05-11T14:26:40.278Z,58.50
2023-05-11T14:29:08.232Z,60.80
2023-05-11T14:31:36.865Z,65.50
2023-05-11T14:34:04.802Z,62.70
2023-05-11T14:36:34.163Z,64.80
2023-05-11T14:39:02.659Z,69.80
2023-05-11T14:41:30.756Z,59.50
2023-05-11T14:43:58.666Z,58.40
2023-05-11T14:46:27.077Z,59.80
2023-05-11T14:48:55.179Z,61.20
2023-05-11T14:51:23.120Z,62.50
2023-05-11T14:53:52.460Z,63.40
2023-05-11T14:56:20.632Z,62.80
2023-05-11T14:58:48.538Z,61.60
2023-05-11T15:01:16.588Z,66.40
2023-05-11T15:03:44.795Z,60.80
2023-05-11T15:06:15.163Z,66.00
2023-05-11T15:08:43.079Z,61.60
2023-05-11T15:11:12.366Z,65.90
2023-05-11T15:13:40.705Z,64.40
2023-05-11T15:16:08.875Z,58.10
2023-05-11T15:18:36.886Z,58.30
2023-05-11T15:21:05.912Z,59.00
2023-05-11T15:23:33.789Z,58.40
2023-05-11T15:26:01.770Z,59.20
2023-05-11T15:28:31.194Z,63.70
2023-05-11T15:30:59.090Z,62.30
2023-05-11T15:33:27.062Z,60.00
2023-05-11T15:35:55.015Z,63.00
2023-05-11T15:38:22.916Z,67.10
2023-05-11T15:40:50.779Z,62.60
2023-05-11T15:43:18.746Z,61.40
2023-05-11T15:45:48.004Z,62.90
2023-05-11T15:48:16.092Z,62.10
2023-05-11T15:50:43.992Z,63.20
2023-05-11T15:53:11.857Z,66.80
2023-05-11T15:55:40.889Z,67.70
2023-05-11T15:58:08.932Z,67.20
2023-05-11T16:00:36.855Z,69.80
2023-05-11T16:03:07.073Z,67.20
2023-05-11T16:05:36.101Z,68.70
2023-05-11T16:08:04.000Z,68.30
2023-05-11T16:10:31.909Z,69.90
2023-05-11T16:12:59.897Z,67.30
2023-05-11T16:15:29.305Z,69.50
2023-05-11T16:17:57.309Z,67.10
2023-05-11T16:20:27.012Z,70.00
2023-05-11T16:22:54.922Z,70.20
2023-05-11T16:25:22.877Z,70.50
2023-05-11T16:27:50.824Z,74.80
2023-05-11T16:30:24.985Z,74.20
2023-05-11T16:32:54.198Z,72.00
2023-05-11T16:35:22.243Z,75.50
2023-05-11T16:37:51.480Z,73.90
2023-05-11T16:40:21.240Z,74.30
2023-05-11T16:42:49.521Z,75.80
2023-05-11T16:45:17.585Z,75.40
2023-05-11T16:47:46.210Z,78.60
2023-05-11T16:50:16.018Z,78.10
2023-05-11T16:52:44.331Z,76.30
2023-05-11T16:55:15.979Z,75.30
2023-05-11T16:57:44.636Z,75.40
2023-05-11T17:00:14.264Z,75.40
2023-05-11T17:02:42.405Z,75.10
2023-05-11T17:05:12.059Z,76.10
2023-05-11T17:07:40.101Z,75.90
2023-05-11T17:10:09.110Z,76.20
2023-05-11T17:12:38.304Z,78.20
2023-05-11T17:15:09.607Z,80.10
2023-05-11T17:17:37.891Z,80.70
2023-05-11T17:20:07.472Z,82.10
2023-05-11T17:22:35.964Z,85.00
2023-05-11T17:25:04.710Z,84.10
2023-05-11T17:27:33.184Z,87.60
2023-05-11T17:30:02.476Z,86.80
2023-05-11T17:32:30.694Z,87.10
2023-05-11T17:34:58.986Z,90.30
2023-05-11T17:37:31.803Z,87.20
2023-05-11T17:40:00.891Z,85.30
2023-05-11T17:42:33.635Z,85.60
2023-05-11T17:45:03.331Z,84.80
2023-05-11T17:47:31.686Z,85.00
2023-05-11T17:49:59.731Z,85.10
2023-05-11T17:52:27.739Z,86.90
2023-05-11T17:54:55.677Z,86.50
2023-05-11T17:57:25.401Z,86.80
2023-05-11T17:59:53.554Z,89.30
2023-05-11T18:02:23.010Z,89.80
2023-05-11T18:04:51.023Z,90.30
2023-05-11T18:07:19.108Z,91.30
2023-05-11T18:09:47.081Z,91.90
2023-05-11T18:12:14.952Z,92.30
2023-05-11T18:14:42.850Z,93.00
2023-05-11T18:17:10.775Z,93.70
2023-05-11T18:19:40.043Z,94.40
2023-05-11T18:22:07.961Z,94.80
2023-05-11T18:24:35.965Z,95.10
2023-05-11T18:27:04.093Z,95.10
2023-05-11T18:29:32.054Z,95.20
2023-05-11T18:32:00.230Z,95.20
2023-05-11T18:34:28.210Z,96.20
2023-05-11T18:36:57.452Z,96.30
2023-05-11T18:39:25.375Z,97.00
2023-05-11T18:41:53.347Z,96.80
2023-05-11T18:44:21.526Z,97.00
2023-05-11T18:46:49.454Z,97.70
2023-05-11T18:49:17.376Z,98.70
2023-05-11T18:51:45.596Z,98.80
2023-05-11T18:54:14.965Z,99.60
2023-05-11T18:56:43.033Z,98.80
2023-05-11T18:59:11.114Z,98.70
2023-05-11T19:01:47.623Z,98.80
2023-05-11T19:04:19.809Z,99.90
2023-05-11T19:06:48.830Z,99.50
2023-05-11T19:09:18.430Z,99.20
2023-05-11T19:11:46.988Z,99.90
2023-05-11T19:14:16.038Z,99.20
2023-05-11T19:16:43.987Z,99.30
2023-05-11T19:19:12.774Z,99.70
2023-05-11T19:21:42.479Z,99.90
2023-05-11T19:24:11.628Z,99.60
2023-05-11T19:26:40.852Z,99.90
2023-05-11T19:29:09.379Z,99.50
2023-05-11T19:31:37.514Z,99.40
2023-05-11T19:34:06.734Z,99.90
2023-05-11T19:36:34.798Z,99.90
2023-05-11T19:39:04.246Z,99.90
2023-05-11T19:41:33.234Z,99.90
2023-05-11T19:44:02.698Z,99.90
2023-05-11T19:46:30.645Z,99.90
2023-05-11T19:48:58.894Z,99.90
2023-05-11T19:51:26.813Z,99.90
2023-05-11T19:53:54.836Z,99.90
2023-05-11T19:56:22.721Z,99.90
2023-05-11T19:58:50.634Z,99.90
2023-05-11T20:01:19.912Z,99.90
2023-05-11T20:03:48.038Z,99.90
2023-05-11T20:06:16.106Z,99.90
2023-05-11T20:08:45.824Z,99.90
2023-05-11T20:11:15.017Z,99.90
2023-05-11T20:13:43.985Z,99.90
2023-05-11T20:16:11.844Z,99.90
2023-05-11T20:18:41.183Z,99.90
2023-05-11T20:21:09.217Z,99.90
2023-05-11T20:23:37.700Z,99.90
2023-05-11T20:26:05.776Z,99.90
2023-05-11T20:28:33.680Z,99.90
2023-05-11T20:31:01.579Z,99.90
2023-05-11T20:36:01.957Z,99.90
2023-05-11T20:38:29.971Z,99.90
2023-05-11T20:40:58.730Z,99.90
2023-05-11T20:43:27.211Z,99.90
2023-05-11T20:45:56.358Z,99.90
2023-05-11T20:48:36.315Z,99.90
2023-05-11T20:51:09.692Z,99.90
2023-05-11T20:53:37.878Z,99.90
2023-05-11T20:56:05.825Z,99.90
2023-05-11T20:58:33.722Z,99.90
2023-05-11T21:01:01.725Z,99.90
2023-05-11T21:03:29.717Z,99.90
2023-05-11T21:05:57.552Z,99.90
2023-05-11T21:08:26.843Z,99.90
2023-05-11T21:10:54.753Z,99.90
2023-05-11T21:13:22.636Z,99.90
2023-05-11T21:15:50.619Z,99.90
2023-05-11T21:18:18.879Z,99.90
2023-05-11T21:20:47.200Z,99.90
2023-05-11T21:23:15.212Z,99.90
2023-05-11T21:25:44.418Z,99.90
2023-05-11T21:28:12.310Z,99.90
2023-05-11T21:30:40.269Z,99.90
2023-05-11T21:33:08.202Z,99.90
2023-05-11T21:35:36.170Z,99.90
2023-05-11T21:38:04.138Z,99.90
2023-05-11T21:40:32.331Z,99.90
2023-05-11T21:43:01.526Z,99.90
2023-05-11T21:45:29.434Z,99.90
2023-05-11T21:47:58.780Z,99.90
2023-05-11T21:50:26.956Z,99.90
2023-05-11T21:52:54.913Z,99.90
2023-05-11T21:55:23.226Z,99.90
2023-05-11T21:57:51.484Z,99.90
2023-05-11T22:00:22.755Z,99.90
2023-05-11T22:02:52.282Z,99.90
2023-05-11T22:05:20.550Z,99.90
2023-05-11T22:07:48.427Z,99.90
2023-05-11T22:10:16.366Z,99.90
2023-05-11T22:12:44.622Z,99.90
2023-05-11T22:15:13.387Z,99.90
2023-05-11T22:17:42.719Z,99.90
2023-05-11T22:20:11.210Z,99.90
2023-05-11T22:22:39.692Z,99.90
2023-05-11T22:25:08.575Z,99.90
2023-05-11T22:27:36.471Z,99.90
2023-05-11T22:30:05.964Z,99.90
2023-05-11T22:32:33.892Z,99.90
2023-05-11T22:35:03.372Z,99.90
2023-05-11T22:37:32.653Z,99.90
2023-05-11T22:40:01.169Z,99.90
2023-05-11T22:42:30.693Z,99.90
2023-05-11T22:44:58.797Z,99.90
2023-05-11T22:47:27.729Z,99.90
2023-05-11T22:49:55.737Z,99.90
2023-05-11T22:52:24.972Z,99.90
2023-05-11T22:54:55.003Z,99.90
2023-05-11T22:57:23.969Z,99.90
2023-05-11T22:59:51.939Z,99.90
2023-05-11T23:02:20.009Z,99.90
2023-05-11T23:04:51.712Z,99.90
2023-05-11T23:07:19.934Z,99.90
2023-05-11T23:09:52.375Z,99.90
2023-05-11T23:12:20.608Z,99.90
2023-05-11T23:14:49.527Z,99.90
2023-05-11T23:17:17.538Z,99.90
2023-05-11T23:19:45.450Z,99.90
2023-05-11T23:22:13.409Z,99.90
2023-05-11T23:24:41.383Z,99.90
2023-05-11T23:27:10.615Z,99.90
2023-05-11T23:29:39.241Z,99.90
2023-05-11T23:32:07.710Z,99.90
2023-05-11T23:34:35.728Z,99.90
2023-05-11T23:37:03.666Z,99.90
2023-05-11T23:39:31.485Z,99.90
2023-05-11T23:42:00.506Z,99.90
2023-05-11T23:44:29.761Z,99.90
2023-05-11T23:46:57.771Z,99.90
2023-05-11T23:49:25.901Z,99.90
2023-05-11T23:51:54.014Z,99.90
2023-05-11T23:54:21.962Z,99.90
2023-05-11T23:56:49.871Z,99.90
2023-05-11T23:59:17.751Z,99.90
